Alburg, Vermont
Current Conditions -  °F | °C
As of 5:15 PM on Tuesday 27 Jan 2015 (Local Time) from KFSO Reporting Station
Overcast Overcast  
Wind Chill: -10°   Ceiling: 400
Heat Index:   Visibility: NA
Dew Point:   Wind: 14mph
Humidity: 83%   Direction: 360°N
Pressure: 29.98"   Gusts: 24mph
Location:  44.9685°N, 73.281°W
Report Text: KFSO 272115Z AUTO 36012G21KT OVC004 M14/M16 A2998 RMK AO2 T11421165 PWINO
Loading
Personal Weather Stations






























Interactive Weather Map New forecast layout! Learn more

10-Day Weather Forecast

Advertisements
Track Severe Weather on mobile